Vineyard, Utah
Current Conditions -  °F | °C
As of 9:15 PM on Friday 24 Oct 2014 (Local Time) from KPVU Reporting Station
Clear Clear  
Wind Chill: 55°   Ceiling: Unl
Heat Index: 55°   Visibility: 10mi
Dew Point: 34°   Wind: 10mph
Humidity: 44%   Direction: 140°SE
Pressure: 30.12"   Gusts: NA
Location:  40.2724°N, 111.717°W
Report Text: KPVU 250315Z AUTO 14009KT 10SM CLR 13/01 A3012 RMK AO1
Loading
Personal Weather Stations






























Interactive Weather Map
Tropical Storm Tracking
New forecast layout! Learn more

10-Day Weather Forecast

Advertisements
Track Severe Weather on mobile